Time;durP1;ratioP1;P1;durP2;ratioP2;P2;SDS_P1;SDS_P2;PMS_P1;PMS_P2;Temp;Humidity;BMP_temperature;BMP_pressure;BME280_temperature;BME280_humidity;BME280_pressure;Samples;Min_cycle;Max_cycle;Signal;HPM_P1;HPM_P2
2022/09/02 00:02:07;;;;;;;3.75;1.00;;;18.70;56.60;;;;;;5066508;28;48609;-75
2022/09/02 00:04:34;;;;;;;4.03;0.90;;;18.70;56.70;;;;;;5066503;28;45415;-75
2022/09/02 00:07:01;;;;;;;2.75;1.08;;;18.70;56.50;;;;;;5066841;28;45242;-74
2022/09/02 00:09:28;;;;;;;2.70;1.40;;;18.80;56.50;;;;;;5075277;28;45528;-74
2022/09/02 00:11:56;;;;;;;3.38;0.93;;;18.70;56.60;;;;;;5066144;28;46525;-76
2022/09/02 00:14:25;;;;;;;2.80;0.80;;;18.50;57.00;;;;;;5065967;28;45770;-74
2022/09/02 00:16:53;;;;;;;2.38;0.88;;;18.50;57.10;;;;;;5066606;28;45171;-74
2022/09/02 00:19:22;;;;;;;2.75;1.17;;;18.50;57.20;;;;;;5066438;28;45387;-74
2022/09/02 00:21:50;;;;;;;2.15;0.95;;;18.50;56.90;;;;;;5066378;28;48792;-74
2022/09/02 00:24:17;;;;;;;1.17;0.80;;;18.40;57.40;;;;;;5066346;28;45263;-74
2022/09/02 00:26:44;;;;;;;5.45;0.90;;;18.40;57.60;;;;;;5066280;28;45279;-75
2022/09/02 00:29:13;;;;;;;3.65;0.93;;;18.20;57.70;;;;;;5066231;28;45237;-74
2022/09/02 00:31:41;;;;;;;2.85;1.00;;;18.30;57.90;;;;;;5066569;28;47825;-74
2022/09/02 00:34:10;;;;;;;2.08;0.82;;;18.40;57.40;;;;;;5066277;28;45529;-74
2022/09/02 00:36:38;;;;;;;1.85;0.77;;;18.30;57.90;;;;;;5066866;28;45200;-74
2022/09/02 00:39:07;;;;;;;2.47;0.70;;;18.30;57.60;;;;;;5067234;28;45396;-75
2022/09/02 00:41:35;;;;;;;3.65;1.00;;;18.60;57.30;;;;;;5065874;28;46669;-74
2022/09/02 00:44:05;;;;;;;2.50;0.95;;;18.50;57.40;;;;;;5066387;28;45163;-74
2022/09/02 00:46:33;;;;;;;1.33;0.70;;;18.40;57.30;;;;;;5066138;28;45313;-74
2022/09/02 00:49:03;;;;;;;2.03;1.05;;;18.40;58.10;;;;;;5066359;28;45277;-74
2022/09/02 00:51:43;;;;;;;1.75;0.80;;;18.30;57.70;;;;;;5065926;28;46906;-74
2022/09/02 00:54:11;;;;;;;1.67;0.70;;;18.60;57.30;;;;;;5075375;28;45344;-74
2022/09/02 00:56:41;;;;;;;2.38;0.80;;;19.00;61.40;;;;;;5080984;28;45517;-74
2022/09/02 00:59:09;;;;;;;2.65;0.80;;;19.10;55.90;;;;;;5065592;28;45525;-75
2022/09/02 01:01:36;;;;;;;5.05;0.70;;;18.80;56.60;;;;;;5065882;28;46579;-74
2022/09/02 01:04:03;;;;;;;1.25;0.82;;;18.70;57.10;;;;;;5065729;28;45331;-75
2022/09/02 01:06:32;;;;;;;1.95;0.77;;;18.40;57.40;;;;;;5065525;28;45478;-74
2022/09/02 01:09:07;;;;;;;2.10;0.73;;;18.50;57.60;;;;;;5072708;28;45518;-74
2022/09/02 01:11:39;;;;;;;2.42;0.80;;;18.20;57.90;;;;;;5065230;28;48246;-74
2022/09/02 01:14:07;;;;;;;5.05;0.70;;;18.50;58.20;;;;;;5073883;28;45248;-74
2022/09/02 01:16:39;;;;;;;7.07;1.02;;;18.50;57.70;;;;;;5065608;28;45336;-74
2022/09/02 01:19:12;;;;;;;1.92;0.73;;;18.30;58.10;;;;;;5065235;28;45227;-75
2022/09/02 01:21:39;;;;;;;1.33;0.80;;;18.40;58.20;;;;;;5065404;28;45460;-74
2022/09/02 01:24:08;;;;;;;1.90;0.60;;;18.30;58.30;;;;;;5073548;28;45892;-74
2022/09/02 01:26:34;;;;;;;1.35;0.80;;;18.30;58.30;;;;;;5065380;28;45541;-74
2022/09/02 01:29:01;;;;;;;6.28;0.80;;;18.40;59.40;;;;;;5073925;28;45597;-74
2022/09/02 01:31:28;;;;;;;6.10;1.85;;;18.30;58.10;;;;;;5085331;28;47018;-74
2022/09/02 01:33:55;;;;;;;1.92;0.70;;;18.70;57.60;;;;;;5069252;28;45425;-74
2022/09/02 01:36:32;;;;;;;4.32;0.93;;;18.80;57.00;;;;;;5065503;28;45317;-74
2022/09/02 01:38:58;;;;;;;2.40;0.93;;;18.60;58.00;;;;;;5062379;28;45191;-74
2022/09/02 01:41:27;;;;;;;4.63;1.02;;;18.80;59.10;;;;;;5064916;28;45235;-74
2022/09/02 01:43:54;;;;;;;1.83;0.70;;;19.10;56.20;;;;;;5065007;28;45447;-75
2022/09/02 01:46:22;;;;;;;4.20;0.85;;;19.20;55.90;;;;;;5064980;28;45350;-74
2022/09/02 01:48:49;;;;;;;1.83;0.65;;;19.80;54.70;;;;;;5065209;28;45522;-75
2022/09/02 01:51:17;;;;;;;4.43;0.90;;;20.70;53.30;;;;;;5064998;28;45230;-75
2022/09/02 01:53:44;;;;;;;1.02;0.52;;;20.10;54.30;;;;;;5075372;28;45347;-75
2022/09/02 01:56:11;;;;;;;0.93;0.60;;;19.40;61.00;;;;;;5086053;28;45216;-73
2022/09/02 01:58:40;;;;;;;4.10;0.70;;;19.20;58.10;;;;;;5068242;28;45399;-74
2022/09/02 02:01:07;;;;;;;3.38;1.00;;;19.60;59.50;;;;;;5065989;28;47377;-74
2022/09/02 02:03:35;;;;;;;2.00;0.77;;;19.10;56.20;;;;;;5072204;28;45209;-74
2022/09/02 02:06:02;;;;;;;1.58;0.80;;;19.10;59.60;;;;;;5073386;28;45127;-74
2022/09/02 02:08:29;;;;;;;3.42;0.98;;;19.40;55.90;;;;;;5073924;28;45389;-74
2022/09/02 02:10:57;;;;;;;0.85;0.60;;;19.20;57.00;;;;;;5085561;28;45386;-74
2022/09/02 02:13:24;;;;;;;2.35;0.73;;;19.20;56.80;;;;;;5065130;28;45956;-74
2022/09/02 02:15:52;;;;;;;1.08;0.63;;;19.00;57.80;;;;;;5065072;28;45376;-74
2022/09/02 02:18:18;;;;;;;0.90;0.70;;;19.50;57.40;;;;;;5065454;28;45170;-74
2022/09/02 02:20:45;;;;;;;4.55;0.80;;;19.20;56.60;;;;;;5067127;28;48292;-74
2022/09/02 02:23:12;;;;;;;4.40;1.10;;;19.00;57.30;;;;;;5068408;28;45903;-75
2022/09/02 02:25:40;;;;;;;0.70;0.55;;;19.00;59.90;;;;;;5068865;28;45275;-74
2022/09/02 02:28:07;;;;;;;0.80;0.60;;;19.70;60.20;;;;;;5068394;28;45467;-74
2022/09/02 02:30:34;;;;;;;2.72;1.08;;;19.40;56.10;;;;;;5068316;28;45346;-74
2022/09/02 02:33:02;;;;;;;2.47;1.30;;;18.60;57.90;;;;;;5068677;28;45165;-75
2022/09/02 02:35:29;;;;;;;3.53;0.75;;;18.80;57.80;;;;;;5068462;28;45196;-74
2022/09/02 02:37:56;;;;;;;2.47;0.70;;;18.90;57.50;;;;;;5068614;28;45206;-74
2022/09/02 02:40:25;;;;;;;2.08;1.05;;;18.50;58.90;;;;;;5067963;28;46251;-74
2022/09/02 02:42:52;;;;;;;3.17;0.80;;;18.70;58.20;;;;;;5067609;28;45385;-75
2022/09/02 02:45:20;;;;;;;2.33;0.70;;;18.30;61.20;;;;;;5067937;28;45326;-74
2022/09/02 02:47:47;;;;;;;2.05;1.13;;;18.10;60.00;;;;;;5070730;28;45548;-74
2022/09/02 02:50:17;;;;;;;3.03;0.90;;;18.00;62.20;;;;;;5067394;28;48077;-74
2022/09/02 02:52:44;;;;;;;1.90;0.93;;;18.00;60.30;;;;;;5068221;28;45256;-75
2022/09/02 02:55:13;;;;;;;1.17;0.77;;;18.00;60.70;;;;;;5067879;28;45190;-74
2022/09/02 02:57:42;;;;;;;2.28;1.05;;;18.40;59.30;;;;;;5067231;28;45229;-74
2022/09/02 03:00:11;;;;;;;3.10;0.85;;;18.10;61.10;;;;;;5067677;28;45553;-74
2022/09/02 03:02:38;;;;;;;1.10;0.90;;;18.00;60.70;;;;;;5067554;28;45257;-75
2022/09/02 03:05:08;;;;;;;2.35;0.80;;;17.80;60.90;;;;;;5067657;28;45461;-74
2022/09/02 03:07:36;;;;;;;2.63;0.90;;;17.80;61.00;;;;;;5068005;28;45391;-74
2022/09/02 03:10:07;;;;;;;2.95;0.90;;;17.80;61.30;;;;;;5067481;28;45555;-74
2022/09/02 03:12:33;;;;;;;3.03;0.80;;;17.80;61.90;;;;;;5067520;28;45344;-75
2022/09/02 03:15:01;;;;;;;2.50;0.63;;;17.80;61.40;;;;;;5067234;28;45395;-74
2022/09/02 03:17:28;;;;;;;2.88;0.80;;;17.60;62.10;;;;;;5067097;28;45269;-74
2022/09/02 03:19:57;;;;;;;12.27;1.40;;;17.50;62.50;;;;;;5067114;28;45412;-74
2022/09/02 03:22:24;;;;;;;4.90;0.73;;;17.40;62.20;;;;;;5066939;28;45416;-74
2022/09/02 03:24:58;;;;;;;2.08;0.70;;;17.40;62.80;;;;;;5073692;28;45287;-73
2022/09/02 03:27:25;;;;;;;1.60;0.80;;;17.40;62.90;;;;;;5069735;28;45706;-73
2022/09/02 03:29:52;;;;;;;1.10;0.73;;;17.70;62.00;;;;;;5079418;28;48735;-73
2022/09/02 03:32:19;;;;;;;1.90;0.80;;;17.50;62.70;;;;;;5073379;28;45278;-74
2022/09/02 03:34:45;;;;;;;1.67;1.02;;;17.60;62.50;;;;;;5066378;28;45277;-74
2022/09/02 03:37:12;;;;;;;1.20;0.70;;;17.70;62.30;;;;;;5076473;28;45281;-74
2022/09/02 03:39:39;;;;;;;8.40;0.90;;;17.50;62.80;;;;;;5072580;28;46609;-74
2022/09/02 03:42:08;;;;;;;2.05;0.68;;;17.50;63.20;;;;;;5067841;28;45253;-74
2022/09/02 03:44:35;;;;;;;2.40;0.90;;;17.70;62.10;;;;;;5067306;28;45267;-74
2022/09/02 03:47:02;;;;;;;3.53;0.85;;;18.20;61.50;;;;;;5057960;28;45404;-73
2022/09/02 03:49:29;;;;;;;4.05;0.98;;;17.90;62.40;;;;;;5057901;28;48176;-74
2022/09/02 03:51:56;;;;;;;2.03;0.98;;;17.80;61.90;;;;;;5066193;28;45297;-74
2022/09/02 03:54:23;;;;;;;4.22;1.00;;;17.70;62.50;;;;;;5066021;28;45343;-74
2022/09/02 03:56:50;;;;;;;1.33;0.73;;;17.70;64.50;;;;;;5059172;28;45545;-74
2022/09/02 03:59:19;;;;;;;2.78;1.10;;;17.60;62.70;;;;;;5056672;28;45344;-74
2022/09/02 04:01:45;;;;;;;2.75;0.90;;;17.40;63.40;;;;;;5065841;28;46133;-74
2022/09/02 04:04:12;;;;;;;1.05;0.60;;;17.40;63.60;;;;;;5066019;28;45211;-74
2022/09/02 04:06:40;;;;;;;3.10;0.85;;;17.30;64.20;;;;;;5066195;28;45235;-74
2022/09/02 04:09:06;;;;;;;4.60;1.00;;;17.30;64.30;;;;;;5065599;28;48041;-74
2022/09/02 04:11:33;;;;;;;2.85;1.00;;;17.20;64.80;;;;;;5065744;28;45333;-74
2022/09/02 04:14:00;;;;;;;2.15;0.82;;;17.20;64.80;;;;;;5066158;28;45470;-74
2022/09/02 04:16:28;;;;;;;1.00;0.70;;;17.20;65.00;;;;;;5074140;28;45189;-74
2022/09/02 04:18:57;;;;;;;0.93;0.73;;;17.20;64.70;;;;;;5066102;28;47090;-74
2022/09/02 04:21:40;;;;;;;3.50;0.90;;;17.30;64.40;;;;;;5074794;28;45438;-74
2022/09/02 04:24:09;;;;;;;1.20;0.80;;;17.20;64.70;;;;;;5066406;28;45235;-74
2022/09/02 04:26:37;;;;;;;4.13;1.00;;;17.30;64.60;;;;;;5065930;28;45504;-74
2022/09/02 04:29:05;;;;;;;2.83;0.90;;;17.30;64.70;;;;;;5065780;28;46523;-74
2022/09/02 04:31:33;;;;;;;0.93;0.70;;;17.30;64.70;;;;;;5068868;28;45324;-74
2022/09/02 04:34:07;;;;;;;2.90;0.80;;;17.40;64.20;;;;;;5066143;28;45247;-74
2022/09/02 04:36:34;;;;;;;2.60;0.75;;;17.70;63.50;;;;;;5067313;28;45221;-74
2022/09/02 04:39:01;;;;;;;1.00;0.73;;;17.70;64.50;;;;;;5066011;28;46535;-74
2022/09/02 04:41:30;;;;;;;1.98;0.70;;;17.70;63.90;;;;;;5065326;28;45802;-74
2022/09/02 04:43:58;;;;;;;6.43;0.98;;;17.60;64.20;;;;;;5065423;28;45562;-74
2022/09/02 04:46:25;;;;;;;2.63;0.90;;;17.40;65.00;;;;;;5065860;28;45340;-74
2022/09/02 04:48:55;;;;;;;3.20;0.88;;;17.60;62.90;;;;;;5073572;28;48134;-74
2022/09/02 04:51:24;;;;;;;2.20;0.70;;;17.00;66.20;;;;;;5065787;28;45731;-73
2022/09/02 04:53:52;;;;;;;1.23;0.90;;;16.80;65.90;;;;;;5065449;28;45253;-74
2022/09/02 04:56:21;;;;;;;1.08;0.75;;;17.10;65.60;;;;;;5064765;28;45605;-74
2022/09/02 04:58:50;;;;;;;1.80;0.90;;;17.10;65.20;;;;;;5065262;28;46910;-74
2022/09/02 05:01:20;;;;;;;2.15;0.73;;;17.60;64.50;;;;;;5065677;28;45305;-74
2022/09/02 05:03:48;;;;;;;1.23;0.70;;;17.70;63.60;;;;;;5074080;28;45309;-74
2022/09/02 05:06:18;;;;;;;2.25;0.93;;;17.30;64.20;;;;;;5066416;28;45561;-74
2022/09/02 05:08:46;;;;;;;3.47;0.90;;;17.60;66.90;;;;;;5066247;28;47588;-74
2022/09/02 05:11:17;;;;;;;3.55;1.38;;;18.10;62.20;;;;;;5065840;28;45326;-75
2022/09/02 05:13:50;;;;;;;2.08;0.93;;;18.50;61.90;;;;;;5066122;28;45238;-75
2022/09/02 05:16:40;;;;;;;2.13;0.73;;;18.80;61.70;;;;;;5066307;28;45223;-75
2022/09/02 05:19:08;;;;;;;2.67;0.85;;;19.90;57.20;;;;;;5066352;28;46343;-75
2022/09/02 05:21:40;;;;;;;3.17;0.52;;;19.90;60.40;;;;;;5066528;28;45286;-75
2022/09/02 05:24:06;;;;;;;3.78;0.73;;;19.50;61.00;;;;;;5065746;28;45432;-75
2022/09/02 05:26:34;;;;;;;1.92;1.02;;;19.50;60.40;;;;;;5066250;28;45265;-75
2022/09/02 05:29:02;;;;;;;2.78;0.80;;;20.40;58.90;;;;;;5065830;28;46344;-75
2022/09/02 05:31:29;;;;;;;5.82;0.82;;;19.70;56.70;;;;;;5066066;28;45232;-75
2022/09/02 05:33:56;;;;;;;1.77;0.50;;;19.10;59.20;;;;;;5066095;28;45202;-75
2022/09/02 05:36:23;;;;;;;1.80;0.77;;;19.00;63.20;;;;;;5065580;28;45201;-74
2022/09/02 05:38:51;;;;;;;1.10;0.80;;;19.40;57.80;;;;;;5072295;28;45431;-74
2022/09/02 05:41:22;;;;;;;1.10;0.70;;;19.90;56.30;;;;;;5075418;28;45265;-75
2022/09/02 05:43:49;;;;;;;3.90;0.85;;;19.10;58.30;;;;;;5065894;28;45238;-75
2022/09/02 05:46:19;;;;;;;1.35;0.73;;;18.90;61.20;;;;;;5065939;28;45194;-75
2022/09/02 05:52:13;;;;;;;3.97;0.90;;;19.10;63.00;;;;;;5063075;28;45118;-75
2022/09/02 05:54:42;;;;;;;4.40;1.42;;;18.80;59.70;;;;;;5065246;28;45226;-75
2022/09/02 05:57:11;;;;;;;3.42;0.90;;;18.50;61.10;;;;;;5065695;28;45515;-75
2022/09/02 05:59:41;;;;;;;1.50;0.82;;;19.50;58.00;;;;;;5066028;28;46305;-75
2022/09/02 06:02:10;;;;;;;0.98;0.57;;;20.10;60.30;;;;;;5065847;28;45165;-75
2022/09/02 06:04:40;;;;;;;1.83;0.88;;;19.30;60.90;;;;;;5066005;28;45275;-75
2022/09/02 06:07:07;;;;;;;3.72;0.90;;;20.40;56.00;;;;;;5065978;28;45247;-75
2022/09/02 06:09:34;;;;;;;1.42;0.80;;;19.50;57.90;;;;;;5065787;28;47642;-75
2022/09/02 06:15:26;;;;;;;2.35;0.75;;;19.90;56.80;;;;;;5065938;28;45153;-75
2022/09/02 06:17:53;;;;;;;4.30;0.98;;;19.30;59.70;;;;;;5065934;28;45519;-75
2022/09/02 06:20:24;;;;;;;3.22;0.70;;;19.50;60.00;;;;;;5065364;28;45419;-75
2022/09/02 06:22:50;;;;;;;2.03;0.60;;;19.30;59.20;;;;;;5065385;28;45156;-75
2022/09/02 06:25:19;;;;;;;1.98;0.63;;;20.30;56.50;;;;;;5065458;28;45211;-75
2022/09/02 06:27:46;;;;;;;3.05;0.80;;;20.70;55.40;;;;;;5065838;28;45378;-75
2022/09/02 06:30:13;;;;;;;2.97;0.85;;;19.90;59.90;;;;;;5065319;28;47814;-75
2022/09/02 06:32:41;;;;;;;1.25;0.60;;;20.00;56.90;;;;;;5065395;28;45138;-75
2022/09/02 06:35:09;;;;;;;3.10;1.00;;;20.10;60.60;;;;;;5065623;28;45165;-75
2022/09/02 06:37:36;;;;;;;1.50;0.90;;;20.10;58.50;;;;;;5065487;28;45223;-75
2022/09/02 06:40:05;;;;;;;7.18;1.20;;;19.50;58.80;;;;;;5065309;28;47132;-75
2022/09/02 06:42:32;;;;;;;6.38;0.68;;;19.70;58.70;;;;;;5065355;28;45310;-75
2022/09/02 06:44:58;;;;;;;3.03;0.80;;;20.10;58.00;;;;;;5065317;28;45273;-75
2022/09/02 06:47:25;;;;;;;2.10;0.82;;;20.60;60.00;;;;;;5065444;28;45240;-75
2022/09/02 06:49:53;;;;;;;2.53;0.70;;;21.00;58.70;;;;;;5065075;28;48448;-75
2022/09/02 06:52:20;;;;;;;5.55;0.90;;;21.60;56.30;;;;;;5065497;28;45166;-75
2022/09/02 06:54:47;;;;;;;1.95;0.60;;;22.00;55.90;;;;;;5065129;28;45260;-75
2022/09/02 06:57:14;;;;;;;1.02;0.52;;;22.20;55.00;;;;;;5064717;28;45597;-75
2022/09/02 06:59:41;;;;;;;3.72;0.60;;;21.90;56.10;;;;;;5064894;28;48047;-75
2022/09/02 07:05:32;;;;;;;2.92;0.75;;;22.50;54.30;;;;;;5062218;28;45338;-75
2022/09/02 07:07:58;;;;;;;1.63;0.82;;;22.50;53.80;;;;;;5070069;28;45734;-75
2022/09/02 07:10:25;;;;;;;3.92;0.70;;;22.50;53.50;;;;;;5068980;28;46252;-75
2022/09/02 07:13:16;;;;;;;1.33;0.70;;;22.70;53.80;;;;;;5068491;28;45911;-76
2022/09/02 07:15:42;;;;;;;1.60;0.80;;;22.70;50.70;;;;;;5068766;28;45053;-75
2022/09/02 07:18:09;;;;;;;1.55;0.80;;;22.70;53.80;;;;;;5068550;28;45300;-75
2022/09/02 07:20:37;;;;;;;6.57;0.88;;;22.80;53.70;;;;;;5067937;28;45235;-75
2022/09/02 07:23:10;;;;;;;2.15;0.70;;;22.90;53.70;;;;;;5068539;28;45140;-75
2022/09/02 07:25:49;;;;;;;1.77;0.63;;;22.90;55.70;;;;;;5068402;28;45123;-76
2022/09/02 07:28:16;;;;;;;1.40;1.00;;;22.90;54.90;;;;;;5068125;28;45346;-75
2022/09/02 07:30:44;;;;;;;1.38;0.90;;;22.90;54.90;;;;;;5068109;28;45237;-75
2022/09/02 07:33:13;;;;;;;1.63;0.82;;;22.90;52.30;;;;;;5068123;28;45233;-75
2022/09/02 07:35:41;;;;;;;0.95;0.80;;;22.90;52.10;;;;;;5068022;28;45161;-75
2022/09/02 07:38:09;;;;;;;3.92;1.00;;;22.60;52.70;;;;;;5068672;28;45283;-75
2022/09/02 07:40:36;;;;;;;2.90;1.10;;;22.70;52.80;;;;;;5067991;28;47319;-75
2022/09/02 07:43:45;;;;;;;4.30;1.50;;;22.80;52.90;;;;;;5068078;28;45331;-76
2022/09/02 07:46:13;;;;;;;1.75;0.80;;;22.10;91.10;;;;;;5068124;28;45117;-75
2022/09/02 07:48:41;;;;;;;1.40;1.20;;;20.40;99.50;;;;;;5063398;28;45092;-74
2022/09/02 07:51:10;;;;;;;2.03;0.90;;;19.80;99.90;;;;;;5067030;28;46518;-75
2022/09/02 07:54:06;;;;;;;3.13;0.90;;;20.10;96.30;;;;;;5067736;28;45242;-75
2022/09/02 07:56:33;;;;;;;1.10;0.73;;;20.80;78.90;;;;;;5067389;28;45149;-75
2022/09/02 07:59:00;;;;;;;5.22;1.15;;;21.30;72.20;;;;;;5066666;28;45531;-73
2022/09/02 08:01:26;;;;;;;2.70;1.00;;;21.80;76.10;;;;;;5047914;28;46671;-75
2022/09/02 08:03:54;;;;;;;7.65;1.20;;;21.60;84.10;;;;;;5047022;28;45474;-75
2022/09/02 08:06:25;;;;;;;1.35;0.88;;;21.50;81.50;;;;;;5047094;28;45334;-75
2022/09/02 08:09:09;;;;;;;1.92;1.00;;;21.50;71.60;;;;;;5047213;28;45428;-75
2022/09/02 08:11:38;;;;;;;1.63;0.82;;;21.60;72.80;;;;;;5046864;28;46510;-75
2022/09/02 08:14:05;;;;;;;2.92;1.00;;;21.60;74.60;;;;;;5046965;28;45451;-75
2022/09/02 08:16:32;;;;;;;2.10;0.98;;;21.50;72.30;;;;;;5046876;28;45204;-75
2022/09/02 08:19:34;;;;;;;4.22;1.30;;;21.50;72.30;;;;;;5046541;28;45346;-75
2022/09/02 08:22:05;;;;;;;2.47;1.20;;;21.60;73.10;;;;;;5046891;28;47708;-75
2022/09/02 08:24:32;;;;;;;3.13;1.10;;;21.70;71.10;;;;;;5046732;28;45957;-75
2022/09/02 08:26:59;;;;;;;4.32;1.10;;;21.80;71.00;;;;;;5047670;28;45224;-75
2022/09/02 08:29:26;;;;;;;1.40;0.63;;;21.80;68.50;;;;;;5047034;28;45177;-75
2022/09/02 08:31:52;;;;;;;2.70;1.05;;;21.90;70.10;;;;;;5046719;28;46430;-75
2022/09/02 08:34:19;;;;;;;1.75;1.27;;;21.90;71.60;;;;;;5046824;28;45212;-75
2022/09/02 08:36:46;;;;;;;1.52;0.98;;;21.90;68.60;;;;;;5046502;28;45074;-75
2022/09/02 08:39:14;;;;;;;2.05;1.15;;;21.90;70.00;;;;;;5046729;28;45516;-75
2022/09/02 08:41:47;;;;;;;1.38;0.88;;;22.00;71.70;;;;;;5046340;28;46573;-75
2022/09/02 08:44:21;;;;;;;1.83;1.23;;;22.00;69.80;;;;;;5046142;28;45282;-75
2022/09/02 08:46:49;;;;;;;3.58;1.40;;;22.00;71.00;;;;;;5046113;28;45191;-75
2022/09/02 08:49:22;;;;;;;2.22;1.30;;;21.90;75.70;;;;;;5055926;28;45244;-75
2022/09/02 08:51:51;;;;;;;1.20;0.93;;;21.80;75.00;;;;;;5062773;28;45470;-75
2022/09/02 08:54:25;;;;;;;2.22;0.95;;;21.70;75.40;;;;;;5066063;28;45498;-75
2022/09/02 08:56:52;;;;;;;2.65;1.20;;;21.70;75.20;;;;;;5070433;28;45566;-74
2022/09/02 08:59:24;;;;;;;5.40;1.20;;;21.70;75.00;;;;;;5065485;28;45196;-74
2022/09/02 09:01:55;;;;;;;8.95;1.10;;;21.60;68.70;;;;;;5066456;28;47408;-74
2022/09/02 09:04:37;;;;;;;6.20;1.35;;;21.20;71.50;;;;;;5066298;28;45206;-74
2022/09/02 09:07:20;;;;;;;2.20;1.10;;;21.30;66.10;;;;;;5066379;28;45183;-74
2022/09/02 09:10:08;;;;;;;1.70;0.95;;;21.30;65.70;;;;;;5046143;28;45401;-75
2022/09/02 09:13:01;;;;;;;2.45;1.10;;;21.40;68.00;;;;;;5046151;28;45492;-74
2022/09/02 09:15:38;;;;;;;3.10;1.25;;;21.50;66.40;;;;;;5013036;28;45804;-74
2022/09/02 09:18:08;;;;;;;7.20;1.25;;;21.60;63.30;;;;;;5066096;28;45073;-75
2022/09/02 09:20:38;;;;;;;4.47;1.30;;;21.60;65.40;;;;;;5066153;28;45397;-75
2022/09/02 09:23:15;;;;;;;2.50;1.05;;;21.80;67.80;;;;;;5065949;28;46928;-75
2022/09/02 09:25:46;;;;;;;2.60;0.90;;;21.90;65.90;;;;;;5066213;28;45268;-76
2022/09/02 09:28:39;;;;;;;1.60;1.10;;;22.00;63.80;;;;;;5066314;28;45221;-75
2022/09/02 09:31:09;;;;;;;1.55;0.73;;;21.90;65.30;;;;;;5065584;28;45460;-75
2022/09/02 09:33:36;;;;;;;3.85;1.10;;;22.20;65.50;;;;;;5065569;28;46748;-75
2022/09/02 09:36:04;;;;;;;2.40;1.17;;;22.50;64.30;;;;;;5066010;28;45226;-75
2022/09/02 09:38:32;;;;;;;1.05;0.80;;;22.40;60.60;;;;;;5066012;28;45155;-75
2022/09/02 09:41:15;;;;;;;3.75;0.90;;;22.20;62.70;;;;;;5065005;28;45491;-74
2022/09/02 09:43:44;;;;;;;1.30;0.85;;;22.20;62.90;;;;;;5065535;28;45490;-75
2022/09/02 09:46:25;;;;;;;1.25;0.85;;;22.30;64.30;;;;;;5069379;28;46538;-75
2022/09/02 09:48:52;;;;;;;2.05;0.90;;;22.40;63.80;;;;;;5066893;28;45383;-75
2022/09/02 09:51:19;;;;;;;1.85;1.00;;;22.40;63.50;;;;;;5065841;28;45499;-75
2022/09/02 09:53:46;;;;;;;2.40;0.95;;;22.40;64.30;;;;;;5065693;28;46598;-75
2022/09/02 09:56:39;;;;;;;1.67;0.88;;;22.40;63.00;;;;;;5065705;28;45230;-75
2022/09/02 09:59:29;;;;;;;3.30;1.05;;;22.50;64.90;;;;;;5065626;28;45202;-75
2022/09/02 10:01:56;;;;;;;2.53;0.90;;;22.50;65.00;;;;;;5063089;28;45265;-75
2022/09/02 10:04:28;;;;;;;1.45;1.00;;;22.50;64.90;;;;;;5065573;28;46554;-75
2022/09/02 10:06:55;;;;;;;2.10;0.90;;;22.50;63.50;;;;;;5065838;28;45157;-75
2022/09/02 10:09:31;;;;;;;1.42;0.85;;;22.50;64.70;;;;;;5065758;28;45344;-75
2022/09/02 10:11:59;;;;;;;2.17;1.02;;;22.50;62.00;;;;;;5065775;28;45371;-75
2022/09/02 10:14:33;;;;;;;0.80;0.60;;;22.60;61.90;;;;;;5065575;28;46092;-75
2022/09/02 10:17:17;;;;;;;0.93;0.82;;;22.60;63.20;;;;;;5065585;28;45365;-75
2022/09/02 10:19:52;;;;;;;2.53;0.90;;;22.60;63.30;;;;;;5065611;28;45183;-76
2022/09/02 10:22:41;;;;;;;1.33;0.88;;;22.60;62.40;;;;;;5065669;28;45421;-75
2022/09/02 10:25:20;;;;;;;1.15;0.77;;;22.60;61.80;;;;;;5065588;28;47110;-75
2022/09/02 10:27:52;;;;;;;1.25;0.90;;;22.60;60.10;;;;;;5062492;28;45222;-75
2022/09/02 10:30:22;;;;;;;0.80;0.80;;;22.70;60.80;;;;;;5065761;28;45194;-75
2022/09/02 10:33:06;;;;;;;1.63;1.02;;;22.60;64.20;;;;;;5065751;28;45305;-75
2022/09/02 10:35:38;;;;;;;1.20;0.95;;;22.60;61.40;;;;;;5065717;28;46460;-75
2022/09/02 10:38:23;;;;;;;0.88;0.68;;;22.70;60.20;;;;;;5066863;28;45823;-74
2022/09/02 10:40:54;;;;;;;1.30;0.82;;;22.70;61.80;;;;;;5066966;28;45359;-75
2022/09/02 10:43:32;;;;;;;3.00;0.88;;;22.70;64.90;;;;;;5066080;28;45194;-76
2022/09/02 10:46:05;;;;;;;1.60;0.82;;;22.70;61.10;;;;;;5068776;28;47019;-75
2022/09/02 10:48:47;;;;;;;1.92;0.85;;;22.70;61.00;;;;;;5068703;28;45637;-75
2022/09/02 10:51:22;;;;;;;1.75;0.90;;;22.80;57.00;;;;;;5068977;28;45247;-75
2022/09/02 10:53:59;;;;;;;1.48;0.80;;;22.80;66.00;;;;;;5068698;28;45240;-75
2022/09/02 10:56:33;;;;;;;1.55;0.70;;;22.70;60.50;;;;;;5068739;28;47063;-75
2022/09/02 10:59:06;;;;;;;0.82;0.70;;;22.80;62.60;;;;;;5068479;28;45134;-75
2022/09/02 11:01:41;;;;;;;1.13;0.70;;;22.80;58.50;;;;;;5068795;28;45209;-75
2022/09/02 11:04:14;;;;;;;1.20;0.95;;;22.80;60.50;;;;;;5068776;28;45358;-75
2022/09/02 11:06:42;;;;;;;1.33;0.90;;;22.90;60.80;;;;;;5068274;28;47330;-75
2022/09/02 11:09:14;;;;;;;1.48;0.85;;;22.90;59.30;;;;;;5068547;28;45206;-75
2022/09/02 11:11:45;;;;;;;1.35;0.90;;;22.90;58.80;;;;;;5068931;28;45197;-75
2022/09/02 11:14:20;;;;;;;1.45;0.63;;;23.00;58.60;;;;;;5068382;28;45068;-75
2022/09/02 11:16:51;;;;;;;1.95;1.25;;;22.90;59.90;;;;;;5067996;28;48005;-75
2022/09/02 11:19:23;;;;;;;3.80;1.10;;;22.90;58.60;;;;;;5068147;28;46112;-75
2022/09/02 11:21:55;;;;;;;3.03;0.80;;;22.90;59.30;;;;;;5068266;28;45096;-75
2022/09/02 11:24:31;;;;;;;3.72;0.82;;;22.90;59.80;;;;;;5068274;28;45566;-76
2022/09/02 11:27:04;;;;;;;1.25;0.95;;;22.90;67.80;;;;;;5068307;28;48041;-75
2022/09/02 11:29:40;;;;;;;4.03;0.90;;;22.80;60.50;;;;;;5068177;28;46441;-74
2022/09/02 11:32:15;;;;;;;1.10;0.80;;;22.80;59.10;;;;;;5069458;28;45284;-75
2022/09/02 11:34:46;;;;;;;1.83;0.70;;;22.80;63.10;;;;;;5068186;28;45325;-75
2022/09/02 11:37:26;;;;;;;0.85;0.73;;;22.90;59.50;;;;;;5067620;28;46285;-75
2022/09/02 11:39:58;;;;;;;1.88;0.80;;;22.90;60.70;;;;;;5067956;28;45128;-75
2022/09/02 11:42:44;;;;;;;1.88;0.90;;;22.90;60.30;;;;;;5068176;28;45256;-75
2022/09/02 11:45:43;;;;;;;0.93;0.70;;;22.90;59.40;;;;;;5068310;28;45380;-75
2022/09/02 11:48:41;;;;;;;1.73;1.00;;;22.90;59.80;;;;;;5040128;28;46080;-76
2022/09/02 11:51:31;;;;;;;0.63;0.50;;;22.90;57.00;;;;;;5068026;28;45158;-75
2022/09/02 11:54:02;;;;;;;0.88;0.63;;;22.90;60.70;;;;;;5065885;28;45112;-75
2022/09/02 11:56:35;;;;;;;2.00;0.95;;;23.00;58.90;;;;;;5067776;28;45439;-75
2022/09/02 11:59:02;;;;;;;1.33;0.70;;;22.90;62.30;;;;;;5067006;28;47389;-76
2022/09/02 12:01:33;;;;;;;1.23;0.65;;;22.90;62.30;;;;;;5067468;28;45310;-75
2022/09/02 12:04:05;;;;;;;1.13;0.70;;;22.90;64.30;;;;;;5067647;28;45077;-75
2022/09/02 12:06:32;;;;;;;1.15;0.90;;;22.90;61.80;;;;;;5068282;28;45348;-75
2022/09/02 12:09:08;;;;;;;1.02;0.70;;;22.90;57.30;;;;;;5067330;28;46250;-75
2022/09/02 12:11:50;;;;;;;1.45;0.80;;;23.00;57.10;;;;;;5067356;28;45658;-75
2022/09/02 12:15:05;;;;;;;0.90;0.65;;;23.00;59.10;;;;;;5068038;28;45249;-76
2022/09/02 12:18:08;;;;;;;1.15;0.75;;;23.00;58.50;;;;;;5067489;28;45269;-75
2022/09/02 12:21:09;;;;;;;1.10;0.70;;;23.00;59.80;;;;;;5067415;28;45470;-75
2022/09/02 12:24:17;;;;;;;1.45;0.70;;;23.00;57.20;;;;;;4988242;28;45329;-75
2022/09/02 12:27:07;;;;;;;0.90;0.70;;;23.00;58.50;;;;;;5037410;28;45251;-75
2022/09/02 12:29:36;;;;;;;1.02;0.85;;;23.00;58.80;;;;;;5067218;28;45449;-75
2022/09/02 12:32:04;;;;;;;1.00;0.90;;;22.90;77.40;;;;;;5067163;28;47310;-75
2022/09/02 12:34:52;;;;;;;2.60;0.60;;;22.80;65.70;;;;;;5066929;28;45395;-75
2022/09/02 12:37:55;;;;;;;1.10;0.70;;;22.80;60.50;;;;;;5067142;28;45172;-75
2022/09/02 12:40:41;;;;;;;0.60;0.60;;;22.90;61.80;;;;;;5067411;28;45583;-75
2022/09/02 12:43:27;;;;;;;3.15;0.90;;;22.90;61.00;;;;;;5067148;28;48247;-75
2022/09/02 12:45:58;;;;;;;2.65;0.80;;;23.00;60.60;;;;;;5067091;28;45214;-75
2022/09/02 12:48:35;;;;;;;1.15;0.73;;;23.00;61.40;;;;;;5067549;28;45396;-75
2022/09/02 12:51:02;;;;;;;0.90;0.63;;;23.00;61.00;;;;;;5067179;28;45060;-76
2022/09/02 12:53:40;;;;;;;0.70;0.70;;;23.00;59.90;;;;;;5066860;28;45135;-75
2022/09/02 12:56:20;;;;;;;0.93;0.40;;;23.00;58.80;;;;;;5066895;28;45405;-76
2022/09/02 12:58:50;;;;;;;0.70;0.40;;;23.00;58.90;;;;;;5066178;28;45156;-75
2022/09/02 13:01:21;;;;;;;0.77;0.60;;;23.00;60.00;;;;;;5067055;28;45625;-75
2022/09/02 13:04:11;;;;;;;0.68;0.60;;;23.00;57.20;;;;;;5063550;28;46234;-75
2022/09/02 13:07:04;;;;;;;1.08;0.70;;;23.00;58.90;;;;;;5066703;28;45939;-76
2022/09/02 13:10:13;;;;;;;0.77;0.60;;;23.00;58.80;;;;;;5066693;28;45156;-76
2022/09/02 13:13:09;;;;;;;0.80;0.68;;;23.10;59.10;;;;;;5066651;28;45424;-75
2022/09/02 13:16:01;;;;;;;0.90;0.60;;;23.00;60.60;;;;;;5068581;28;47389;-75
2022/09/02 13:19:15;;;;;;;3.45;0.75;;;23.00;58.60;;;;;;5052494;28;46026;-76
2022/09/02 13:22:35;;;;;;;0.93;0.70;;;23.00;59.70;;;;;;4991648;28;45137;-76
2022/09/02 13:25:35;;;;;;;1.17;0.70;;;23.00;61.70;;;;;;5045354;28;45501;-76